Time;durP1;ratioP1;P1;durP2;ratioP2;P2;SDS_P1;SDS_P2;PMS_P1;PMS_P2;Temp;Humidity;BMP_temperature;BMP_pressure;BME280_temperature;BME280_humidity;BME280_pressure;Samples;Min_cycle;Max_cycle;Signal;HPM_P1;HPM_P2
2022/05/08 00:00:58;;;;;;;3.00;1.83;;;;;;;12.46;100.00;101197.97;7385282;19;20356;-81
2022/05/08 00:03:24;;;;;;;7.45;1.92;;;;;;;12.43;100.00;101184.94;7385581;19;20042;-80
2022/05/08 00:05:51;;;;;;;6.97;1.35;;;;;;;12.33;100.00;101186.09;7383602;19;20382;-80
2022/05/08 00:08:18;;;;;;;7.97;2.50;;;;;;;12.25;100.00;101188.38;7385529;19;20018;-80
2022/05/08 00:10:44;;;;;;;10.35;1.70;;;;;;;12.17;100.00;101185.06;7387185;19;20021;-83
2022/05/08 00:13:10;;;;;;;14.82;2.70;;;;;;;12.08;100.00;101190.56;7387008;19;20029;-82
2022/05/08 00:15:37;;;;;;;8.98;1.63;;;;;;;12.02;100.00;101197.97;7386098;19;20049;-83
2022/05/08 00:18:03;;;;;;;0.60;0.57;;;;;;;11.96;100.00;101187.84;7386050;19;20033;-81
2022/05/08 00:20:30;;;;;;;1.25;1.00;;;;;;;11.91;100.00;101192.00;7394386;19;20006;-92
2022/05/08 00:22:56;;;;;;;4.07;1.95;;;;;;;11.90;100.00;101193.22;7393662;19;20078;-81
2022/05/08 00:25:22;;;;;;;5.10;1.52;;;;;;;11.78;100.00;101193.28;7390444;19;20352;-87
2022/05/08 00:27:49;;;;;;;9.23;2.25;;;;;;;11.66;100.00;101180.88;7390746;19;20374;-85
2022/05/08 00:30:15;;;;;;;4.68;1.63;;;;;;;11.63;100.00;101187.34;7402155;19;20018;-90
2022/05/08 00:32:41;;;;;;;4.25;1.25;;;;;;;11.56;100.00;101176.47;7392898;19;20018;-84
2022/05/08 00:35:10;;;;;;;5.82;1.05;;;;;;;11.40;100.00;101182.16;7390411;19;20014;-85
2022/05/08 00:37:37;;;;;;;1.95;1.40;;;;;;;11.30;100.00;101188.88;7389061;19;20484;-85
2022/05/08 00:40:04;;;;;;;7.30;1.67;;;;;;;11.25;100.00;101186.66;7392632;19;20807;-86
2022/05/08 00:42:31;;;;;;;9.18;2.08;;;;;;;11.27;100.00;101184.19;7388906;19;20017;-85
2022/05/08 00:44:57;;;;;;;4.78;1.27;;;;;;;11.24;100.00;101183.06;7390163;19;20014;-84
2022/05/08 00:47:23;;;;;;;4.35;1.08;;;;;;;11.21;100.00;101183.19;7390435;19;20054;-85
2022/05/08 00:49:49;;;;;;;8.63;1.95;;;;;;;11.15;100.00;101180.19;7393178;19;20052;-84
2022/05/08 00:52:16;;;;;;;2.60;1.77;;;;;;;11.03;100.00;101183.75;7390727;19;20019;-84
2022/05/08 00:54:43;;;;;;;7.88;1.25;;;;;;;10.96;100.00;101183.22;7390651;19;20022;-83
2022/05/08 00:57:09;;;;;;;2.17;1.25;;;;;;;10.87;100.00;101177.53;7388937;19;20020;-85
2022/05/08 00:59:36;;;;;;;2.85;1.35;;;;;;;10.81;100.00;101170.94;7393516;19;20018;-84
2022/05/08 01:02:03;;;;;;;0.75;0.55;;;;;;;10.70;100.00;101181.66;7388129;19;20102;-84
2022/05/08 01:04:30;;;;;;;1.40;1.30;;;;;;;10.59;100.00;101177.16;7390212;19;20486;-84
2022/05/08 01:06:56;;;;;;;1.60;1.50;;;;;;;10.63;100.00;101172.25;7388312;19;20023;-84
2022/05/08 01:09:23;;;;;;;7.75;1.77;;;;;;;10.68;100.00;101174.50;7389650;19;20032;-84
2022/05/08 01:11:49;;;;;;;3.22;1.75;;;;;;;10.72;100.00;101168.03;7388700;19;20484;-84
2022/05/08 01:14:17;;;;;;;17.70;1.70;;;;;;;10.71;100.00;101166.47;7390296;19;20014;-84
2022/05/08 01:16:44;;;;;;;3.22;0.85;;;;;;;10.75;100.00;101172.72;7387545;19;20030;-85
2022/05/08 01:19:10;;;;;;;1.63;1.20;;;;;;;10.73;100.00;101177.94;7391396;19;20354;-84
2022/05/08 01:21:41;;;;;;;5.43;1.48;;;;;;;10.74;100.00;101173.94;7396273;19;20357;-85
2022/05/08 01:24:11;;;;;;;;;;;;;;;10.74;100.00;101177.53;7397826;19;20007;-84
2022/05/08 01:26:37;;;;;;;1.27;1.08;;;;;;;10.70;100.00;101173.28;7393470;19;19926;-85
2022/05/08 01:29:04;;;;;;;0.95;0.93;;;;;;;10.67;100.00;101172.16;7396287;19;20022;-84
2022/05/08 01:31:31;;;;;;;5.75;1.75;;;;;;;10.68;100.00;101171.72;7395827;19;20018;-84
2022/05/08 01:33:58;;;;;;;4.13;1.38;;;;;;;10.68;100.00;101170.91;7393745;19;20018;-84
2022/05/08 01:36:24;;;;;;;3.75;1.48;;;;;;;10.68;100.00;101168.94;7392086;19;20015;-85
2022/05/08 01:38:51;;;;;;;22.35;1.80;;;;;;;10.64;100.00;101165.47;7394601;19;20042;-85
2022/05/08 01:41:18;;;;;;;7.47;1.88;;;;;;;10.63;100.00;101161.09;7392868;19;20025;-84
2022/05/08 01:43:44;;;;;;;0.90;0.65;;;;;;;10.65;100.00;101160.69;7396189;19;20014;-84
2022/05/08 01:46:12;;;;;;;2.97;1.15;;;;;;;10.66;100.00;101157.44;7393548;19;20006;-85
2022/05/08 01:48:38;;;;;;;5.50;2.28;;;;;;;10.74;100.00;101157.22;7395180;19;20010;-84
2022/05/08 01:51:04;;;;;;;8.75;2.42;;;;;;;10.74;100.00;101154.44;7393553;19;20014;-84
2022/05/08 01:53:33;;;;;;;1.98;0.60;;;;;;;10.80;100.00;101158.22;7396127;19;20010;-85
2022/05/08 01:56:07;;;;;;;4.45;1.10;;;;;;;10.84;100.00;101162.47;7390858;19;20015;-84
2022/05/08 01:58:33;;;;;;;2.65;1.52;;;;;;;10.89;100.00;101161.13;7396848;19;20014;-84
2022/05/08 02:01:01;;;;;;;1.85;0.68;;;;;;;10.99;100.00;101160.00;7396170;19;20669;-84
2022/05/08 02:03:28;;;;;;;5.70;0.93;;;;;;;11.05;100.00;101158.22;7394272;19;20054;-84
2022/05/08 02:05:54;;;;;;;2.15;0.75;;;;;;;11.12;100.00;101158.78;7392943;19;20015;-84
2022/05/08 02:08:20;;;;;;;13.65;1.45;;;;;;;11.16;100.00;101164.25;7395273;19;20010;-85
2022/05/08 02:10:53;;;;;;;2.58;0.93;;;;;;;11.23;100.00;101164.81;7396109;19;20698;-85
2022/05/08 02:13:19;;;;;;;1.20;1.10;;;;;;;11.30;100.00;101169.38;7393162;19;20054;-84
2022/05/08 02:15:45;;;;;;;10.55;1.83;;;;;;;11.33;100.00;101163.66;7390785;19;20039;-83
2022/05/08 02:18:14;;;;;;;12.98;1.95;;;;;;;11.41;100.00;101167.00;7395194;19;20722;-84
2022/05/08 02:20:40;;;;;;;2.50;1.38;;;;;;;11.46;100.00;101172.00;7394378;19;20021;-84
2022/05/08 02:23:08;;;;;;;2.15;1.30;;;;;;;11.59;100.00;101158.78;7393522;19;20031;-85
2022/05/08 02:28:11;;;;;;;0.55;0.35;;;;;;;11.69;100.00;101168.88;7389376;19;20652;-52
2022/05/08 02:30:37;;;;;;;9.05;1.52;;;;;;;11.71;100.00;101174.78;7395210;19;20075;-53
2022/05/08 02:33:03;;;;;;;1.75;1.10;;;;;;;11.78;100.00;101171.72;7391191;19;20033;-53
2022/05/08 02:35:29;;;;;;;10.20;1.23;;;;;;;11.79;100.00;101170.50;7390810;19;20363;-53
2022/05/08 02:37:56;;;;;;;5.63;1.58;;;;;;;11.70;100.00;101158.47;7392490;19;20010;-53
2022/05/08 02:40:23;;;;;;;6.10;0.85;;;;;;;11.67;100.00;101156.59;7393360;19;20441;-52
2022/05/08 02:42:50;;;;;;;17.63;2.42;;;;;;;11.63;100.00;101164.28;7391820;19;20343;-53
2022/05/08 02:45:16;;;;;;;9.10;2.92;;;;;;;11.62;100.00;101165.50;7395908;19;20030;-53
2022/05/08 02:47:44;;;;;;;1.13;0.88;;;;;;;11.62;100.00;101160.69;7392366;19;20078;-53
2022/05/08 02:50:11;;;;;;;2.00;1.33;;;;;;;11.60;100.00;101168.75;7394895;19;20017;-53
2022/05/08 02:52:38;;;;;;;4.40;1.50;;;;;;;11.65;100.00;101170.94;7391165;19;20018;-53
2022/05/08 03:00:37;;;;;;;1.00;0.95;;;;;;;11.73;100.00;101163.16;7395914;19;20018;-53
2022/05/08 03:03:07;;;;;;;4.25;1.40;;;;;;;11.62;100.00;101169.06;7391252;19;20033;-53
2022/05/08 03:05:34;;;;;;;3.17;1.20;;;;;;;11.68;100.00;101167.28;7390676;19;20340;-53
2022/05/08 03:08:00;;;;;;;2.58;1.30;;;;;;;11.65;100.00;101162.56;7390189;19;20007;-53
2022/05/08 03:10:27;;;;;;;1.05;1.05;;;;;;;11.74;100.00;101164.69;7394883;19;20010;-53
2022/05/08 03:12:54;;;;;;;3.83;1.55;;;;;;;11.76;100.00;101168.59;7391270;19;20011;-53
2022/05/08 03:15:21;;;;;;;3.13;2.08;;;;;;;11.72;100.00;101162.34;7391006;19;20011;-53
2022/05/08 03:17:47;;;;;;;5.90;1.80;;;;;;;11.71;100.00;101171.97;7390769;19;20006;-53
2022/05/08 03:20:13;;;;;;;6.38;1.77;;;;;;;11.68;100.00;101163.72;7395236;19;20014;-53
2022/05/08 03:22:40;;;;;;;11.60;1.13;;;;;;;11.63;100.00;101165.03;7389866;19;20022;-53
2022/05/08 03:25:06;;;;;;;11.93;1.40;;;;;;;11.55;100.00;101163.72;7388638;19;20011;-51
2022/05/08 03:27:32;;;;;;;3.80;1.50;;;;;;;11.53;100.00;101176.56;7392950;19;20579;-85
2022/05/08 03:30:02;;;;;;;3.20;1.38;;;;;;;11.64;100.00;101171.41;7394792;19;20046;-85
2022/05/08 03:32:28;;;;;;;2.40;1.08;;;;;;;11.74;100.00;101171.06;7391530;19;20048;-85
2022/05/08 03:34:54;;;;;;;23.75;2.42;;;;;;;11.75;100.00;101164.25;7390823;19;20020;-84
2022/05/08 03:37:20;;;;;;;1.30;0.95;;;;;;;11.65;100.00;101170.94;7390788;19;20026;-84
2022/05/08 03:39:46;;;;;;;3.47;1.45;;;;;;;11.69;100.00;101171.66;7396734;19;20344;-84
2022/05/08 03:42:13;;;;;;;3.38;1.20;;;;;;;11.73;100.00;101166.72;7389906;19;20014;-85
2022/05/08 03:44:40;;;;;;;10.00;1.92;;;;;;;11.71;100.00;101158.03;7390239;19;20032;-85
2022/05/08 03:47:06;;;;;;;1.60;1.30;;;;;;;11.71;100.00;101166.41;7390515;19;20022;-85
2022/05/08 03:49:32;;;;;;;6.40;2.00;;;;;;;11.71;100.00;101154.44;7392355;19;20018;-85
2022/05/08 03:51:59;;;;;;;6.18;1.00;;;;;;;11.69;100.00;101152.13;7391437;19;20326;-85
2022/05/08 03:54:25;;;;;;;11.25;1.88;;;;;;;11.72;100.00;101161.56;7393316;19;20018;-83
2022/05/08 03:56:51;;;;;;;8.48;2.30;;;;;;;11.65;100.00;101147.84;7392327;19;20034;-85
2022/05/08 03:59:17;;;;;;;19.08;1.77;;;;;;;11.65;100.00;101148.63;7393619;19;20013;-86
2022/05/08 04:01:43;;;;;;;10.57;2.03;;;;;;;11.67;100.00;101154.59;7387495;19;20007;-85
2022/05/08 04:04:11;;;;;;;3.65;2.47;;;;;;;11.66;100.00;101147.41;7391011;19;20038;-84
2022/05/08 04:06:37;;;;;;;6.43;1.90;;;;;;;11.58;100.00;101145.31;7386675;19;20468;-84
2022/05/08 04:09:03;;;;;;;1.23;0.98;;;;;;;11.59;100.00;101144.84;7392408;19;20025;-85
2022/05/08 04:11:30;;;;;;;2.33;1.17;;;;;;;11.64;100.00;101147.06;7390185;19;20033;-84
2022/05/08 04:13:56;;;;;;;5.45;1.60;;;;;;;11.66;100.00;101152.97;7391105;19;20010;-84
2022/05/08 04:16:24;;;;;;;7.15;1.65;;;;;;;11.63;100.00;101153.88;7386612;19;20039;-85
2022/05/08 04:18:51;;;;;;;8.25;1.98;;;;;;;11.61;100.00;101150.75;7389679;19;20010;-83
2022/05/08 04:21:17;;;;;;;16.13;3.08;;;;;;;11.59;100.00;101153.22;7388743;19;20034;-84
2022/05/08 04:26:30;;;;;;;19.25;2.58;;;;;;;11.36;100.00;101156.41;7388449;19;20089;-84
2022/05/08 04:29:00;;;;;;;18.70;2.03;;;;;;;11.46;100.00;101149.69;7389437;19;20038;-85
2022/05/08 04:31:28;;;;;;;12.45;2.08;;;;;;;11.62;100.00;101152.31;7387607;19;20014;-84
2022/05/08 04:33:54;;;;;;;2.97;1.20;;;;;;;11.64;100.00;101152.66;7389796;19;20082;-87
2022/05/08 04:36:20;;;;;;;2.08;1.70;;;;;;;11.65;100.00;101148.63;7392585;19;20018;-88
2022/05/08 04:38:47;;;;;;;2.13;0.85;;;;;;;11.60;100.00;101143.63;7396668;19;20036;-88
2022/05/08 04:41:13;;;;;;;4.30;2.00;;;;;;;11.57;100.00;101141.72;7393418;19;20027;-89
2022/05/08 04:43:40;;;;;;;2.83;1.00;;;;;;;11.54;100.00;101145.44;7394454;19;20023;-87
2022/05/08 04:46:06;;;;;;;5.93;1.73;;;;;;;11.41;100.00;101153.06;7393670;19;20019;-88
2022/05/08 04:48:32;;;;;;;5.93;1.52;;;;;;;11.39;100.00;101150.69;7394486;19;20023;-88
2022/05/08 04:50:58;;;;;;;5.88;2.13;;;;;;;11.40;100.00;101154.28;7393573;19;20030;-92
2022/05/08 04:53:24;;;;;;;9.27;1.23;;;;;;;11.37;100.00;101147.59;7392882;19;20031;-84
2022/05/08 04:55:50;;;;;;;8.05;2.78;;;;;;;11.38;100.00;101159.53;7389765;19;20048;-85
2022/05/08 04:58:16;;;;;;;8.05;1.15;;;;;;;11.38;100.00;101159.53;7395967;19;20460;-84
2022/05/08 05:00:43;;;;;;;12.52;1.92;;;;;;;11.43;100.00;101156.19;7397396;19;20054;-87
2022/05/08 05:03:09;;;;;;;3.15;1.02;;;;;;;11.49;100.00;101162.75;7399676;19;20021;-86
2022/05/08 05:05:35;;;;;;;13.68;1.30;;;;;;;11.62;100.00;101163.50;7397629;19;20011;-88
2022/05/08 05:08:01;;;;;;;9.95;3.45;;;;;;;11.66;100.00;101169.72;7401146;19;20015;-87
2022/05/08 05:10:27;;;;;;;8.15;2.65;;;;;;;11.76;100.00;101174.19;7403568;19;20023;-86
2022/05/08 05:12:54;;;;;;;2.40;1.33;;;;;;;11.91;100.00;101175.22;7399751;19;20508;-86
2022/05/08 05:15:20;;;;;;;3.92;1.63;;;;;;;11.96;100.00;101174.66;7396195;19;20428;-86
2022/05/08 05:17:49;;;;;;;14.52;1.80;;;;;;;12.01;100.00;101174.09;7397899;19;20007;-86
2022/05/08 05:20:15;;;;;;;6.63;2.10;;;;;;;12.05;100.00;101169.16;7397785;19;20015;-86
2022/05/08 05:22:41;;;;;;;7.90;1.67;;;;;;;12.17;100.00;101170.34;7398966;19;20026;-86
2022/05/08 05:25:08;;;;;;;8.18;2.08;;;;;;;12.30;100.00;101178.66;7397842;19;20557;-86
2022/05/08 05:27:34;;;;;;;4.75;1.55;;;;;;;12.32;100.00;101176.19;7399615;19;20014;-86
2022/05/08 05:30:03;;;;;;;3.92;2.35;;;;;;;12.40;100.00;101192.22;7392909;19;20014;-86
2022/05/08 05:32:29;;;;;;;1.42;1.20;;;;;;;12.38;100.00;101196.69;7394929;19;20781;-86
2022/05/08 05:34:55;;;;;;;7.47;2.95;;;;;;;12.47;100.00;101191.19;7397911;19;20026;-85
2022/05/08 05:37:21;;;;;;;4.78;2.42;;;;;;;12.57;100.00;101187.19;7393998;19;20109;-85
2022/05/08 05:39:47;;;;;;;4.18;1.95;;;;;;;12.53;100.00;101192.13;7399722;19;20003;-86
2022/05/08 05:42:14;;;;;;;11.52;3.42;;;;;;;12.51;100.00;101194.63;7397706;19;20022;-86
2022/05/08 05:44:40;;;;;;;10.30;1.83;;;;;;;12.55;100.00;101200.84;7396464;19;20019;-86
2022/05/08 05:49:51;;;;;;;10.75;2.97;;;;;;;12.47;100.00;101200.34;7397166;19;20030;-88
2022/05/08 05:52:17;;;;;;;5.22;2.05;;;;;;;12.54;100.00;101196.50;7401098;19;20473;-87
2022/05/08 05:54:43;;;;;;;10.43;2.80;;;;;;;12.57;100.00;101195.56;7397516;19;20019;-85
2022/05/08 05:57:09;;;;;;;5.32;2.60;;;;;;;12.60;100.00;101203.06;7396965;19;20014;-86
2022/05/08 05:59:35;;;;;;;7.10;2.17;;;;;;;12.64;100.00;101200.91;7399427;19;20095;-86
2022/05/08 06:02:01;;;;;;;2.45;1.55;;;;;;;12.66;100.00;101202.00;7398414;19;20011;-87
2022/05/08 06:04:28;;;;;;;11.55;1.38;;;;;;;12.71;100.00;101203.44;7397354;19;20010;-86
2022/05/08 06:06:54;;;;;;;14.70;2.35;;;;;;;12.66;100.00;101184.47;7395754;19;20133;-85
2022/05/08 06:09:20;;;;;;;4.18;1.65;;;;;;;12.62;100.00;101190.19;7394478;19;20011;-86
2022/05/08 06:11:46;;;;;;;10.02;1.58;;;;;;;12.57;100.00;101190.00;7395798;19;20018;-87
2022/05/08 06:14:13;;;;;;;11.60;2.15;;;;;;;12.53;100.00;101186.56;7397127;19;20042;-86
2022/05/08 06:16:39;;;;;;;6.47;2.53;;;;;;;12.50;100.00;101193.03;7391321;19;20354;-85
2022/05/08 06:19:06;;;;;;;6.13;1.90;;;;;;;12.63;100.00;101202.13;7394203;19;20022;-84
2022/05/08 06:21:32;;;;;;;10.25;2.60;;;;;;;12.70;100.00;101187.88;7396311;19;20018;-85
2022/05/08 06:23:58;;;;;;;10.43;2.13;;;;;;;12.78;100.00;101191.97;7393336;19;20962;-86
2022/05/08 06:26:24;;;;;;;10.07;3.25;;;;;;;12.85;100.00;101197.28;7391549;19;20110;-85
2022/05/08 06:28:50;;;;;;;4.18;1.83;;;;;;;12.94;100.00;101205.72;7391749;19;20017;-87
2022/05/08 06:31:18;;;;;;;2.72;1.58;;;;;;;12.97;100.00;101206.81;7395590;19;20078;-86
2022/05/08 06:33:45;;;;;;;8.00;3.38;;;;;;;12.96;100.00;101214.44;7394845;19;20372;-85
2022/05/08 06:36:11;;;;;;;15.57;3.10;;;;;;;12.97;100.00;101201.22;7392707;19;20074;-85
2022/05/08 06:38:37;;;;;;;4.13;2.40;;;;;;;13.00;100.00;101212.28;7394861;19;20010;-86
2022/05/08 06:41:04;;;;;;;3.10;2.17;;;;;;;13.09;100.00;101206.75;7394032;19;20056;-85
2022/05/08 06:43:30;;;;;;;3.30;1.95;;;;;;;13.13;100.00;101207.38;7394254;19;20019;-85
2022/05/08 06:45:56;;;;;;;6.53;2.50;;;;;;;13.24;100.00;101207.75;7391125;19;20023;-84
2022/05/08 06:48:23;;;;;;;7.28;2.20;;;;;;;13.48;100.00;101203.16;7391977;19;20043;-85
2022/05/08 06:50:49;;;;;;;4.68;2.40;;;;;;;13.56;100.00;101207.22;7394459;19;20026;-85
2022/05/08 06:53:15;;;;;;;6.20;2.63;;;;;;;13.48;100.00;101210.75;7394192;19;20035;-86
2022/05/08 06:55:43;;;;;;;10.57;2.80;;;;;;;13.68;100.00;101203.50;7392604;19;20026;-86
2022/05/08 06:58:09;;;;;;;8.45;3.05;;;;;;;13.77;100.00;101199.94;7394578;19;20603;-85
2022/05/08 07:03:23;;;;;;;4.18;1.42;;;;;;;13.83;100.00;101202.88;7391696;19;20019;-85
2022/05/08 07:05:49;;;;;;;5.38;1.67;;;;;;;13.92;100.00;101200.09;7391351;19;20385;-86
2022/05/08 07:08:16;;;;;;;12.70;3.70;;;;;;;14.01;100.00;101214.13;7395283;19;20017;-88
2022/05/08 07:10:42;;;;;;;6.35;2.33;;;;;;;14.06;100.00;101213.47;7393034;19;20014;-85
2022/05/08 07:13:08;;;;;;;2.75;1.75;;;;;;;14.12;100.00;101220.03;7393639;19;20015;-84
2022/05/08 07:15:36;;;;;;;4.13;1.98;;;;;;;14.16;100.00;101215.06;7392313;19;20014;-86
2022/05/08 07:18:02;;;;;;;2.70;1.50;;;;;;;14.10;100.00;101220.47;7394105;19;20006;-87
2022/05/08 07:20:28;;;;;;;1.17;0.73;;;;;;;14.07;100.00;101217.84;7397631;19;20688;-83
2022/05/08 07:22:54;;;;;;;2.72;1.67;;;;;;;14.04;100.00;101227.19;7391930;19;20028;-85
2022/05/08 07:25:21;;;;;;;2.75;2.05;;;;;;;13.97;100.00;101224.69;7394400;19;20022;-86
2022/05/08 07:27:48;;;;;;;2.22;1.10;;;;;;;13.88;100.00;101224.69;7394923;19;20670;-85
2022/05/08 07:30:15;;;;;;;5.93;2.10;;;;;;;13.81;100.00;101227.78;7393839;19;20033;-84
2022/05/08 07:32:42;;;;;;;6.07;1.30;;;;;;;13.84;100.00;101226.88;7394401;19;20460;-85
2022/05/08 07:37:53;;;;;;;1.23;1.00;;;;;;;13.85;100.00;101228.41;7395653;19;20022;-85
2022/05/08 07:40:19;;;;;;;5.03;1.92;;;;;;;13.79;100.00;101231.06;7396667;19;20040;-85
2022/05/08 07:42:46;;;;;;;7.28;1.67;;;;;;;13.79;100.00;101230.28;7389243;19;20019;-86
2022/05/08 07:45:12;;;;;;;5.70;1.75;;;;;;;13.83;100.00;101226.09;7390848;19;20029;-84
2022/05/08 07:47:39;;;;;;;10.27;1.52;;;;;;;13.97;100.00;101230.31;7391167;19;20040;-84
2022/05/08 07:50:06;;;;;;;2.47;2.28;;;;;;;13.95;100.00;101235.56;7391958;19;20027;-84
2022/05/08 07:52:38;;;;;;;3.03;1.17;;;;;;;14.01;100.00;101230.94;7390062;19;20276;-83
2022/05/08 07:55:06;;;;;;;5.13;1.90;;;;;;;14.02;100.00;101238.06;7385133;19;20018;-83
2022/05/08 07:57:32;;;;;;;3.88;1.77;;;;;;;14.08;100.00;101239.78;7388767;19;20018;-83
2022/05/08 07:59:58;;;;;;;5.35;1.50;;;;;;;13.99;100.00;101236.97;7392185;19;20042;-84
2022/05/08 08:02:25;;;;;;;5.20;1.48;;;;;;;13.95;100.00;101227.94;7389774;19;20048;-84
2022/05/08 08:04:52;;;;;;;5.85;1.10;;;;;;;14.08;100.00;101236.19;7392439;19;20033;-84
2022/05/08 08:07:18;;;;;;;5.10;1.15;;;;;;;14.06;100.00;101221.88;7390058;19;20006;-84
2022/05/08 08:09:44;;;;;;;4.78;0.77;;;;;;;14.06;100.00;101228.28;7394187;19;20018;-87
2022/05/08 08:12:11;;;;;;;3.13;1.20;;;;;;;14.15;100.00;101227.50;7390702;19;20500;-84
2022/05/08 08:14:37;;;;;;;4.65;0.95;;;;;;;14.36;100.00;101229.38;7390545;19;20026;-86
2022/05/08 08:17:03;;;;;;;3.70;1.50;;;;;;;14.13;100.00;101221.59;7392396;19;20022;-85
2022/05/08 08:19:30;;;;;;;5.88;0.85;;;;;;;14.22;100.00;101230.78;7390302;19;20397;-84
2022/05/08 08:21:59;;;;;;;1.20;0.95;;;;;;;14.27;100.00;101226.56;7390711;19;20365;-84
2022/05/08 08:24:26;;;;;;;2.25;0.55;;;;;;;14.26;100.00;101227.81;7388811;19;20022;-84
2022/05/08 08:26:52;;;;;;;2.40;1.60;;;;;;;14.43;100.00;101234.66;7387943;19;20018;-85
2022/05/08 08:29:18;;;;;;;1.73;0.85;;;;;;;14.56;100.00;101240.88;7397406;19;20054;-85
2022/05/08 08:31:44;;;;;;;0.98;0.85;;;;;;;14.55;100.00;101235.75;7406447;19;20006;-87
2022/05/08 08:34:10;;;;;;;3.72;0.52;;;;;;;14.67;100.00;101237.59;7406931;19;20026;-87
2022/05/08 08:36:36;;;;;;;2.22;1.45;;;;;;;14.67;100.00;101238.38;7404275;19;20702;-86
2022/05/08 08:39:03;;;;;;;5.50;0.98;;;;;;;14.77;100.00;101239.91;7409300;19;20015;-86
2022/05/08 08:41:34;;;;;;;3.33;0.75;;;;;;;14.95;100.00;101245.47;7405073;19;20413;-84
2022/05/08 08:49:43;;;;;;;1.27;1.17;;;;;;;15.10;100.00;101226.72;7405194;19;20015;-86
2022/05/08 08:52:11;;;;;;;1.48;1.17;;;;;;;15.15;100.00;101223.28;7404031;19;20014;-85
2022/05/08 08:54:37;;;;;;;2.35;1.25;;;;;;;15.32;100.00;101226.47;7403378;19;20033;-84
2022/05/08 08:57:04;;;;;;;1.00;0.93;;;;;;;15.47;100.00;101223.78;7401358;19;20053;-85
2022/05/08 08:59:30;;;;;;;6.60;0.88;;;;;;;15.26;100.00;101227.59;7405795;19;20011;-86
2022/05/08 09:01:56;;;;;;;2.10;0.57;;;;;;;15.20;100.00;101231.03;7403763;19;20367;-86
2022/05/08 09:04:22;;;;;;;5.00;0.95;;;;;;;15.29;100.00;101229.47;7403875;19;20881;-87
2022/05/08 09:06:49;;;;;;;3.92;1.45;;;;;;;15.31;100.00;101229.75;7403132;19;20026;-87
2022/05/08 09:09:31;;;;;;;4.20;0.70;;;;;;;15.30;100.00;101233.81;7404255;19;20082;-85
2022/05/08 09:11:58;;;;;;;8.60;1.45;;;;;;;15.34;100.00;101248.44;7400466;19;20039;-86
2022/05/08 09:14:27;;;;;;;11.70;2.00;;;;;;;15.37;100.00;101234.25;7402036;19;20043;-87
2022/05/08 09:16:54;;;;;;;2.03;0.63;;;;;;;15.37;100.00;101236.28;7404057;19;20043;-84
2022/05/08 09:19:36;;;;;;;1.02;0.52;;;;;;;15.32;100.00;101236.91;7405082;19;20042;-85
2022/05/08 09:22:03;;;;;;;;;;;;;;;15.22;100.00;101243.84;7403395;19;20045;-86
2022/05/08 09:24:30;;;;;;;7.60;1.08;;;;;;;15.14;100.00;101238.56;7401914;19;19930;-86
2022/05/08 09:27:11;;;;;;;2.55;1.02;;;;;;;15.05;100.00;101235.78;7403682;19;20585;-86
2022/05/08 09:29:38;;;;;;;1.00;0.50;;;;;;;15.01;100.00;101246.38;7406178;19;20022;-86
2022/05/08 09:32:05;;;;;;;4.40;1.23;;;;;;;14.96;100.00;101244.25;7405220;19;20019;-86
2022/05/08 09:34:57;;;;;;;5.18;1.27;;;;;;;14.89;100.00;101244.56;7404462;19;20014;-88
2022/05/08 09:37:27;;;;;;;4.90;1.13;;;;;;;14.98;100.00;101238.94;7402323;19;20365;-84
2022/05/08 09:40:17;;;;;;;4.90;1.10;;;;;;;15.09;100.00;101241.25;7402354;19;20022;-84
2022/05/08 09:42:43;;;;;;;2.97;0.80;;;;;;;15.17;100.00;101237.63;7392227;19;20006;-84
2022/05/08 09:45:10;;;;;;;1.15;0.77;;;;;;;15.37;100.00;101236.28;7390693;19;20006;-83
2022/05/08 09:47:45;;;;;;;3.53;1.17;;;;;;;15.28;100.00;101241.94;7393474;19;20022;-80
2022/05/08 09:50:12;;;;;;;6.05;1.40;;;;;;;15.40;100.00;101238.16;7391176;19;20022;-81
2022/05/08 09:52:40;;;;;;;5.10;1.02;;;;;;;15.46;100.00;101234.25;7391527;19;20024;-82
2022/05/08 09:55:13;;;;;;;0.43;0.43;;;;;;;15.52;100.00;101231.56;7390182;19;20022;-82
2022/05/08 09:57:40;;;;;;;5.22;0.85;;;;;;;15.65;100.00;101234.91;7389293;19;20015;-84
2022/05/08 10:00:08;;;;;;;9.57;0.65;;;;;;;15.77;100.00;101237.47;7394321;19;20035;-82
2022/05/08 10:02:45;;;;;;;1.23;0.77;;;;;;;15.93;100.00;101234.25;7392451;19;20050;-83
2022/05/08 10:05:12;;;;;;;4.57;1.58;;;;;;;16.07;100.00;101229.94;7388581;19;20022;-82
2022/05/08 10:07:40;;;;;;;3.05;0.88;;;;;;;16.28;100.00;101228.84;7389594;19;20018;-82
2022/05/08 10:15:48;;;;;;;5.65;1.65;;;;;;;16.49;100.00;101224.88;7388674;19;20092;-83
2022/05/08 10:18:28;;;;;;;1.23;0.63;;;;;;;16.57;100.00;101211.25;7390124;19;20022;-83
2022/05/08 10:21:07;;;;;;;7.10;0.55;;;;;;;16.50;100.00;101228.50;7391621;19;20719;-84
2022/05/08 10:23:40;;;;;;;1.17;0.60;;;;;;;16.32;100.00;101223.03;7392307;19;20031;-86
2022/05/08 10:26:29;;;;;;;12.10;1.05;;;;;;;16.18;100.00;101218.91;7390147;19;20444;-83
2022/05/08 10:29:02;;;;;;;2.90;1.35;;;;;;;16.28;100.00;101211.97;7389985;19;20014;-83
2022/05/08 10:31:48;;;;;;;3.85;0.47;;;;;;;16.60;100.00;101211.06;7388422;19;20544;-83
2022/05/08 10:34:15;;;;;;;1.65;0.82;;;;;;;16.67;100.00;101219.09;7388882;19;20468;-83
2022/05/08 10:37:14;;;;;;;3.85;1.00;;;;;;;16.68;100.00;101217.84;7388057;19;20042;-84
2022/05/08 10:39:41;;;;;;;2.00;0.52;;;;;;;16.68;100.00;101214.25;7388619;19;20025;-84
2022/05/08 10:42:50;;;;;;;2.28;0.50;;;;;;;16.71;100.00;101204.84;7389352;19;20019;-85
2022/05/08 10:45:30;;;;;;;4.18;1.08;;;;;;;16.65;100.00;101206.78;7389163;19;20021;-85
2022/05/08 10:48:05;;;;;;;4.35;1.23;;;;;;;16.72;100.00;101211.25;7393036;19;20017;-84
2022/05/08 10:50:31;;;;;;;8.50;1.80;;;;;;;16.85;100.00;101206.88;7395059;19;20487;-86
2022/05/08 10:52:58;;;;;;;4.15;0.73;;;;;;;16.92;100.00;101208.50;7392291;19;20717;-84
2022/05/08 10:55:25;;;;;;;1.08;0.50;;;;;;;17.00;100.00;101209.69;7391483;19;20491;-83
2022/05/08 10:57:53;;;;;;;3.25;1.10;;;;;;;17.09;100.00;101207.53;7394487;19;20011;-86
2022/05/08 11:00:25;;;;;;;1.35;0.77;;;;;;;17.13;100.00;101199.66;7394344;19;20018;-84
2022/05/08 11:02:59;;;;;;;5.07;0.93;;;;;;;17.43;100.00;101203.19;7396597;19;20014;-87
2022/05/08 11:05:29;;;;;;;6.07;0.40;;;;;;;17.86;100.00;101195.84;7394605;19;20488;-85
2022/05/08 11:08:07;;;;;;;9.52;1.08;;;;;;;18.37;100.00;101192.31;7394444;19;20090;-84
2022/05/08 11:10:37;;;;;;;5.47;1.15;;;;;;;18.73;100.00;101189.63;7393634;19;20431;-89
2022/05/08 11:13:10;;;;;;;1.55;1.00;;;;;;;18.90;100.00;101193.38;7388600;19;20512;-88
2022/05/08 11:15:38;;;;;;;2.13;0.90;;;;;;;19.06;100.00;101194.00;7395450;19;20023;-86
2022/05/08 11:18:17;;;;;;;3.53;0.75;;;;;;;19.13;100.00;101199.97;7396777;19;20034;-89
2022/05/08 11:20:49;;;;;;;9.55;0.70;;;;;;;18.89;100.00;101189.00;7397152;19;20066;-89
2022/05/08 11:23:17;;;;;;;1.67;0.52;;;;;;;18.83;100.00;101190.22;7396177;19;20019;-87
2022/05/08 11:25:48;;;;;;;3.28;0.45;;;;;;;19.04;100.00;101196.53;7394426;19;20018;-90
2022/05/08 11:28:18;;;;;;;5.70;0.52;;;;;;;19.03;100.00;101192.97;7396126;19;20011;-87
2022/05/08 11:30:47;;;;;;;2.75;0.93;;;;;;;18.74;100.00;101190.41;7394758;19;20010;-89
2022/05/08 11:36:10;;;;;;;4.57;0.73;;;;;;;18.60;100.00;101186.41;7393127;19;20018;-89
2022/05/08 11:38:50;;;;;;;2.22;0.85;;;;;;;18.46;100.00;101178.09;7394141;19;20048;-86
2022/05/08 11:41:18;;;;;;;2.35;0.55;;;;;;;18.59;100.00;101182.06;7394392;19;20476;-89
2022/05/08 11:43:47;;;;;;;5.28;0.73;;;;;;;18.53;100.00;101181.25;7396023;19;20038;-88
2022/05/08 11:46:16;;;;;;;4.30;0.63;;;;;;;18.55;100.00;101177.91;7394143;19;20034;-85
2022/05/08 11:48:47;;;;;;;3.22;0.40;;;;;;;18.66;100.00;101175.19;7393781;19;20006;-85
2022/05/08 11:51:19;;;;;;;4.22;0.90;;;;;;;18.80;100.00;101172.25;7393639;19;20099;-87
2022/05/08 11:53:53;;;;;;;5.50;0.50;;;;;;;18.68;100.00;101169.81;7396196;19;20010;-86